createdAt,value
2023-05-19T00:00:18.509Z,74.98
2023-05-19T00:02:45.595Z,74.47
2023-05-19T00:05:15.526Z,74.84
2023-05-19T00:07:45.997Z,74.50
2023-05-19T00:10:13.967Z,74.76
2023-05-19T00:12:42.862Z,74.47
2023-05-19T00:15:13.079Z,75.00
2023-05-19T00:17:39.685Z,75.18
2023-05-19T00:20:06.929Z,75.21
2023-05-19T00:22:33.562Z,75.54
2023-05-19T00:25:00.346Z,75.57
2023-05-19T00:27:26.957Z,75.62
2023-05-19T00:29:53.724Z,75.33
2023-05-19T00:32:21.359Z,75.28
2023-05-19T00:34:48.329Z,75.69
2023-05-19T00:37:16.187Z,75.71
2023-05-19T00:39:42.723Z,75.66
2023-05-19T00:42:09.543Z,75.56
2023-05-19T00:44:40.791Z,75.58
2023-05-19T00:47:10.400Z,75.21
2023-05-19T00:49:36.851Z,75.08
2023-05-19T00:52:06.161Z,75.35
2023-05-19T00:54:34.533Z,75.47
2023-05-19T00:57:01.309Z,75.59
2023-05-19T00:59:28.006Z,75.74
2023-05-19T01:01:54.699Z,75.50
2023-05-19T01:04:21.940Z,75.82
2023-05-19T01:06:49.493Z,75.88
2023-05-19T01:09:17.398Z,75.98
2023-05-19T01:11:43.844Z,76.27
2023-05-19T01:14:10.498Z,76.29
2023-05-19T01:16:42.496Z,75.93
2023-05-19T01:19:51.105Z,76.40
2023-05-19T01:22:42.195Z,76.59
2023-05-19T01:25:08.731Z,76.64
2023-05-19T01:28:08.033Z,76.77
2023-05-19T01:30:38.591Z,77.06
2023-05-19T01:33:08.309Z,76.72
2023-05-19T01:35:36.689Z,76.73
2023-05-19T01:38:05.370Z,76.90
2023-05-19T01:40:33.499Z,77.29
2023-05-19T01:43:01.901Z,77.48
2023-05-19T01:45:30.291Z,77.40
2023-05-19T01:47:59.115Z,77.88
2023-05-19T01:50:26.927Z,78.15
2023-05-19T01:52:55.371Z,77.40
2023-05-19T01:55:23.893Z,78.07
2023-05-19T01:58:06.609Z,78.33
2023-05-19T02:00:54.275Z,78.04
2023-05-19T02:03:42.759Z,77.59
2023-05-19T02:06:30.448Z,78.06
2023-05-19T02:08:59.576Z,78.47
2023-05-19T02:11:36.463Z,78.23
2023-05-19T02:14:24.831Z,78.86
2023-05-19T02:16:52.577Z,79.21
2023-05-19T02:19:24.320Z,78.69
2023-05-19T02:21:51.362Z,78.69
2023-05-19T02:24:18.617Z,78.69
2023-05-19T02:26:47.178Z,78.72
2023-05-19T02:29:16.032Z,78.77
2023-05-19T02:31:42.824Z,78.59
2023-05-19T02:34:09.722Z,78.32
2023-05-19T02:36:36.684Z,78.38
2023-05-19T02:39:04.292Z,78.57
2023-05-19T02:41:32.102Z,78.32
2023-05-19T02:43:58.827Z,78.40
2023-05-19T02:46:25.455Z,78.37
2023-05-19T02:48:53.329Z,78.46
2023-05-19T02:51:20.051Z,78.24
2023-05-19T02:53:46.803Z,77.79
2023-05-19T02:56:13.707Z,78.16
2023-05-19T02:58:40.259Z,78.20
2023-05-19T03:01:07.051Z,78.59
2023-05-19T03:03:33.700Z,78.03
2023-05-19T03:06:00.351Z,78.81
2023-05-19T03:08:27.141Z,77.99
2023-05-19T03:10:53.925Z,78.14
2023-05-19T03:13:20.740Z,78.01
2023-05-19T03:15:47.582Z,77.74
2023-05-19T03:18:14.274Z,77.74
2023-05-19T03:20:41.731Z,78.31
2023-05-19T03:23:08.345Z,78.44
2023-05-19T03:25:35.142Z,78.34
2023-05-19T03:28:01.791Z,78.85
2023-05-19T03:30:28.607Z,78.32
2023-05-19T03:32:55.272Z,78.65
2023-05-19T03:35:21.971Z,78.70
2023-05-19T03:37:48.762Z,79.02
2023-05-19T03:40:16.097Z,79.09
2023-05-19T03:42:42.541Z,78.80
2023-05-19T03:45:09.342Z,78.73
2023-05-19T03:47:36.166Z,78.54
2023-05-19T03:50:02.883Z,78.74
2023-05-19T03:52:29.756Z,79.04
2023-05-19T03:54:56.322Z,78.41
2023-05-19T03:57:22.940Z,79.01
2023-05-19T03:59:49.830Z,78.85
2023-05-19T04:02:16.980Z,78.36
2023-05-19T04:04:43.668Z,78.18
2023-05-19T04:07:10.245Z,78.50
2023-05-19T04:09:36.736Z,77.99
2023-05-19T04:12:03.341Z,78.59
2023-05-19T04:14:29.848Z,78.37
2023-05-19T04:16:56.371Z,78.68
2023-05-19T04:19:23.460Z,78.00
2023-05-19T04:21:50.048Z,77.97
2023-05-19T04:24:18.616Z,77.99
2023-05-19T04:26:45.384Z,77.76
2023-05-19T04:29:12.018Z,77.42
2023-05-19T04:31:38.654Z,78.12
2023-05-19T04:34:05.514Z,77.77
2023-05-19T04:36:32.395Z,77.41
2023-05-19T04:38:58.948Z,78.02
2023-05-19T04:41:25.782Z,77.91
2023-05-19T04:43:52.322Z,78.08
2023-05-19T04:46:19.511Z,77.18
2023-05-19T04:48:45.873Z,77.29
2023-05-19T04:51:12.447Z,77.06
2023-05-19T04:53:39.260Z,76.67
2023-05-19T04:56:06.358Z,77.15
2023-05-19T04:58:34.494Z,77.14
2023-05-19T05:01:01.273Z,76.32
2023-05-19T05:03:30.061Z,76.47
2023-05-19T05:05:56.753Z,76.68
2023-05-19T05:08:23.502Z,76.34
2023-05-19T05:10:53.765Z,76.16
2023-05-19T05:13:24.090Z,75.90
2023-05-19T05:15:51.186Z,76.31
2023-05-19T05:18:17.813Z,75.41
2023-05-19T05:20:45.721Z,76.28
2023-05-19T05:23:12.800Z,75.54
2023-05-19T05:25:39.674Z,75.41
2023-05-19T05:28:06.481Z,75.31
2023-05-19T05:30:34.642Z,75.00
2023-05-19T05:33:02.335Z,75.37
2023-05-19T05:35:28.948Z,74.83
2023-05-19T05:37:55.689Z,75.35
2023-05-19T05:40:22.245Z,72.36
2023-05-19T05:42:48.766Z,72.73
2023-05-19T05:45:15.507Z,72.26
2023-05-19T05:47:42.370Z,72.60
2023-05-19T05:50:10.423Z,70.82
2023-05-19T05:52:37.724Z,70.13
2023-05-19T05:55:06.515Z,69.76
2023-05-19T05:57:34.842Z,70.08
2023-05-19T06:00:01.402Z,68.54
2023-05-19T06:02:28.044Z,68.15
2023-05-19T06:04:54.609Z,68.43
2023-05-19T06:07:21.649Z,68.45
2023-05-19T06:09:48.468Z,67.15
2023-05-19T06:12:15.070Z,68.37
2023-05-19T06:14:41.805Z,67.57
2023-05-19T06:17:08.357Z,66.97
2023-05-19T06:19:35.229Z,66.53
2023-05-19T06:22:01.740Z,66.64
2023-05-19T06:24:28.485Z,65.48
2023-05-19T06:26:55.974Z,65.63
2023-05-19T06:29:23.171Z,64.99
2023-05-19T06:31:50.121Z,64.86
2023-05-19T06:34:16.646Z,66.69
2023-05-19T06:36:43.318Z,64.79
2023-05-19T06:39:09.990Z,64.55
2023-05-19T06:41:36.724Z,63.31
2023-05-19T06:44:04.641Z,63.53
2023-05-19T06:46:31.272Z,64.57
2023-05-19T06:48:57.843Z,62.95
2023-05-19T06:51:24.587Z,62.80
2023-05-19T06:53:51.323Z,63.88
2023-05-19T06:56:17.935Z,61.85
2023-05-19T06:58:45.390Z,61.84
2023-05-19T07:01:11.913Z,61.35
2023-05-19T07:03:38.801Z,62.91
2023-05-19T07:06:07.859Z,60.87
2023-05-19T07:08:35.191Z,61.92
2023-05-19T07:11:01.727Z,60.76
2023-05-19T07:13:28.303Z,60.57
2023-05-19T07:15:55.275Z,61.06
2023-05-19T07:18:22.516Z,60.45
2023-05-19T07:20:49.144Z,60.41
2023-05-19T07:23:17.346Z,60.15
2023-05-19T07:25:44.407Z,58.79
2023-05-19T07:28:10.989Z,57.97
2023-05-19T07:30:37.841Z,56.20
2023-05-19T07:33:04.872Z,56.71
2023-05-19T07:35:31.718Z,57.62
2023-05-19T07:37:58.350Z,57.37
2023-05-19T07:40:24.967Z,57.17
2023-05-19T07:42:52.126Z,56.76
2023-05-19T07:45:18.765Z,55.83
2023-05-19T07:47:45.413Z,56.10
2023-05-19T07:50:12.237Z,57.55
2023-05-19T07:52:38.808Z,56.42
2023-05-19T07:55:05.634Z,56.27
2023-05-19T07:57:34.546Z,55.29
2023-05-19T08:00:01.078Z,56.24
2023-05-19T08:02:27.944Z,55.48
2023-05-19T08:04:54.582Z,54.77
2023-05-19T08:07:21.195Z,53.62
2023-05-19T08:09:48.028Z,54.63
2023-05-19T08:12:14.837Z,53.79
2023-05-19T08:14:41.611Z,53.69
2023-05-19T08:17:08.336Z,52.60
2023-05-19T08:19:35.418Z,54.24
2023-05-19T08:22:01.998Z,53.33
2023-05-19T08:24:28.520Z,54.26
2023-05-19T08:26:55.471Z,52.14
2023-05-19T08:29:22.192Z,51.90
2023-05-19T08:31:49.149Z,51.14
2023-05-19T08:34:15.788Z,51.25
2023-05-19T08:36:42.516Z,50.24
2023-05-19T08:39:09.365Z,50.20
2023-05-19T08:41:36.263Z,49.03
2023-05-19T08:44:02.941Z,48.91
2023-05-19T08:46:29.801Z,50.38
2023-05-19T08:48:59.684Z,48.92
2023-05-19T08:52:00.021Z,48.88
2023-05-19T08:54:33.191Z,47.99
2023-05-19T08:57:02.857Z,45.68
2023-05-19T08:59:30.527Z,43.38
2023-05-19T09:01:57.606Z,43.64
2023-05-19T09:04:26.437Z,45.96
2023-05-19T09:06:54.338Z,45.30
2023-05-19T09:09:21.636Z,44.05
2023-05-19T09:11:48.417Z,44.23
2023-05-19T09:14:14.942Z,41.83
2023-05-19T09:16:42.017Z,42.37
2023-05-19T09:19:14.230Z,43.14
2023-05-19T09:21:40.734Z,43.73
2023-05-19T09:24:09.590Z,42.78
2023-05-19T09:26:39.906Z,43.22
2023-05-19T09:29:16.749Z,43.68
2023-05-19T09:31:54.181Z,43.14
2023-05-19T09:34:21.945Z,42.64
2023-05-19T09:36:48.951Z,42.86
2023-05-19T09:39:16.320Z,44.10
2023-05-19T09:41:43.584Z,41.06
2023-05-19T09:44:28.368Z,41.76
2023-05-19T09:46:55.616Z,41.79
2023-05-19T09:49:26.928Z,40.95
2023-05-19T09:51:57.867Z,41.74
2023-05-19T09:54:25.234Z,40.72
2023-05-19T09:57:00.541Z,40.16
2023-05-19T09:59:31.341Z,40.50
2023-05-19T10:02:00.239Z,39.87
2023-05-19T10:04:29.091Z,40.99
2023-05-19T10:06:57.726Z,40.89
2023-05-19T10:09:25.933Z,40.66
2023-05-19T10:11:53.757Z,39.90
2023-05-19T10:14:27.020Z,40.50
2023-05-19T10:16:57.292Z,38.41
2023-05-19T10:19:25.963Z,39.87
2023-05-19T10:21:52.878Z,38.81
2023-05-19T10:24:19.949Z,37.98
2023-05-19T10:27:00.664Z,38.38
2023-05-19T10:29:30.592Z,39.20
2023-05-19T10:32:04.714Z,38.70
2023-05-19T10:35:05.759Z,39.30
2023-05-19T10:37:58.824Z,37.98
2023-05-19T10:40:29.570Z,39.27
2023-05-19T10:43:17.613Z,38.01
2023-05-19T10:45:54.642Z,38.87
2023-05-19T10:48:21.463Z,38.92
2023-05-19T10:50:49.335Z,39.08
2023-05-19T10:53:17.879Z,37.68
2023-05-19T10:55:47.959Z,37.17
2023-05-19T10:58:14.876Z,38.57
2023-05-19T11:00:41.541Z,37.84
2023-05-19T11:03:14.805Z,37.92
2023-05-19T11:05:41.704Z,36.82
2023-05-19T11:08:08.239Z,37.89
2023-05-19T11:10:34.762Z,37.91
2023-05-19T11:13:01.244Z,37.28
2023-05-19T11:15:28.600Z,38.33
2023-05-19T11:17:55.629Z,37.97
2023-05-19T11:20:23.394Z,37.36
2023-05-19T11:23:16.106Z,38.60
2023-05-19T11:25:50.054Z,37.34
2023-05-19T11:28:18.583Z,37.25
2023-05-19T11:30:46.915Z,39.12
2023-05-19T11:33:14.033Z,37.97
2023-05-19T11:35:41.021Z,38.18
2023-05-19T11:38:07.687Z,38.12
2023-05-19T11:40:34.335Z,36.56
2023-05-19T11:43:00.823Z,36.07
2023-05-19T11:45:29.398Z,37.20
2023-05-19T11:48:01.846Z,35.74
2023-05-19T11:50:31.443Z,37.16
2023-05-19T11:53:00.605Z,36.79
2023-05-19T11:55:27.707Z,37.04
2023-05-19T11:58:04.964Z,35.74
2023-05-19T12:00:38.606Z,36.40
2023-05-19T12:03:06.017Z,36.97
2023-05-19T12:05:36.623Z,37.19
2023-05-19T12:08:06.344Z,37.79
2023-05-19T12:10:33.028Z,38.00
2023-05-19T12:12:59.548Z,37.08
2023-05-19T12:15:26.495Z,37.59
2023-05-19T12:18:02.419Z,36.43
2023-05-19T12:20:29.952Z,36.54
2023-05-19T12:22:56.669Z,36.02
2023-05-19T12:25:24.316Z,36.85
2023-05-19T12:27:51.159Z,38.07
2023-05-19T12:30:17.730Z,36.83
2023-05-19T12:32:46.011Z,37.55
2023-05-19T12:35:12.580Z,37.66
2023-05-19T12:37:42.624Z,36.91
2023-05-19T12:40:09.803Z,37.46
2023-05-19T12:42:36.480Z,35.52
2023-05-19T12:45:04.201Z,37.24
2023-05-19T12:47:32.710Z,37.57
2023-05-19T12:49:59.236Z,37.19
2023-05-19T12:52:27.190Z,35.00
2023-05-19T12:55:00.666Z,35.29
2023-05-19T12:57:28.724Z,36.46
2023-05-19T13:00:00.991Z,37.74
2023-05-19T13:02:27.674Z,37.44
2023-05-19T13:04:54.130Z,37.82
2023-05-19T13:07:21.494Z,36.95
2023-05-19T13:09:48.263Z,37.53
2023-05-19T13:12:14.790Z,37.30
2023-05-19T13:14:41.610Z,37.45
2023-05-19T13:17:08.146Z,38.18
2023-05-19T13:19:35.180Z,38.10
2023-05-19T13:22:01.783Z,38.60
2023-05-19T13:24:28.263Z,39.08
2023-05-19T13:26:56.017Z,39.36
2023-05-19T13:29:22.928Z,39.66
2023-05-19T13:31:49.467Z,40.23
2023-05-19T13:34:15.987Z,40.26
2023-05-19T13:36:42.809Z,38.80
2023-05-19T13:39:09.559Z,38.87
2023-05-19T13:41:36.054Z,39.82
2023-05-19T13:44:02.740Z,39.15
2023-05-19T13:46:40.746Z,39.63
2023-05-19T13:49:11.170Z,40.93
2023-05-19T13:51:37.925Z,40.42
2023-05-19T13:54:04.290Z,40.11
2023-05-19T13:56:30.803Z,40.33
2023-05-19T13:58:57.290Z,39.98
2023-05-19T14:01:23.776Z,40.71
2023-05-19T14:03:50.382Z,40.90
2023-05-19T14:06:16.871Z,41.78
2023-05-19T14:08:43.623Z,42.48
2023-05-19T14:11:09.971Z,41.70
2023-05-19T14:13:40.388Z,42.21
2023-05-19T14:16:09.263Z,42.56
2023-05-19T14:18:36.038Z,42.32
2023-05-19T14:21:02.781Z,42.37
2023-05-19T14:23:29.133Z,43.46
2023-05-19T14:25:56.217Z,42.30
2023-05-19T14:28:22.891Z,41.14
2023-05-19T14:30:50.263Z,41.15
2023-05-19T14:33:17.345Z,41.12
2023-05-19T14:35:44.224Z,41.41
2023-05-19T14:38:10.845Z,41.92
2023-05-19T14:40:37.858Z,41.78
2023-05-19T14:43:04.490Z,42.54
2023-05-19T14:45:30.917Z,42.85
2023-05-19T14:47:58.129Z,41.92
2023-05-19T14:50:26.093Z,42.66
2023-05-19T14:52:53.534Z,42.30
2023-05-19T14:55:21.853Z,43.20
2023-05-19T14:57:51.166Z,42.74
2023-05-19T15:00:18.326Z,42.52
2023-05-19T15:02:46.374Z,43.11
2023-05-19T15:05:13.068Z,41.44
2023-05-19T15:07:40.388Z,42.13
2023-05-19T15:10:07.757Z,41.71
2023-05-19T15:12:34.658Z,40.74
2023-05-19T15:15:03.436Z,40.53
2023-05-19T15:17:30.179Z,40.71
2023-05-19T15:19:56.825Z,40.98
2023-05-19T15:22:23.566Z,41.53
2023-05-19T15:24:50.123Z,41.68
2023-05-19T15:27:16.883Z,41.71
2023-05-19T15:29:43.393Z,41.19
2023-05-19T15:32:10.190Z,42.16
2023-05-19T15:34:36.868Z,41.23
2023-05-19T15:37:03.932Z,41.81
2023-05-19T15:39:34.649Z,42.16
2023-05-19T15:42:03.636Z,41.61
2023-05-19T15:44:31.608Z,42.29
2023-05-19T15:47:01.463Z,42.77
2023-05-19T15:49:28.037Z,42.16
2023-05-19T15:51:54.796Z,41.91
2023-05-19T15:54:21.128Z,41.54
2023-05-19T15:56:47.966Z,42.02
2023-05-19T15:59:14.958Z,41.62
2023-05-19T16:01:41.703Z,42.23
2023-05-19T16:04:08.214Z,42.69
2023-05-19T16:06:35.122Z,42.19
2023-05-19T16:09:02.330Z,43.17
2023-05-19T16:11:29.062Z,43.88
2023-05-19T16:13:55.662Z,43.35
2023-05-19T16:16:22.493Z,43.59
2023-05-19T16:18:49.433Z,42.70
2023-05-19T16:21:17.525Z,42.51
2023-05-19T16:23:44.352Z,42.11
2023-05-19T16:26:11.358Z,42.38
2023-05-19T16:28:38.521Z,42.02
2023-05-19T16:31:05.269Z,42.34
2023-05-19T16:33:31.828Z,42.31
2023-05-19T16:35:59.115Z,42.76
2023-05-19T16:38:26.055Z,42.59
2023-05-19T16:40:52.753Z,43.52
2023-05-19T16:43:19.465Z,43.51
2023-05-19T16:45:46.406Z,43.08
2023-05-19T16:48:13.006Z,43.23
2023-05-19T16:50:39.629Z,43.73
2023-05-19T16:53:06.556Z,43.60
2023-05-19T16:55:34.339Z,44.23
2023-05-19T16:58:01.083Z,43.89
2023-05-19T17:00:27.902Z,44.41
2023-05-19T17:02:54.608Z,44.37
2023-05-19T17:05:21.472Z,44.65
2023-05-19T17:07:47.947Z,45.04
2023-05-19T17:10:14.779Z,45.44
2023-05-19T17:12:41.338Z,44.67
2023-05-19T17:15:08.237Z,44.40
2023-05-19T17:17:34.706Z,44.94
2023-05-19T17:20:03.582Z,44.72
2023-05-19T17:22:30.524Z,44.47
2023-05-19T17:24:57.355Z,44.85
2023-05-19T17:27:23.887Z,44.18
2023-05-19T17:29:50.460Z,44.44
2023-05-19T17:32:17.378Z,45.00
2023-05-19T17:34:44.511Z,45.55
2023-05-19T17:37:11.380Z,45.17
2023-05-19T17:39:39.564Z,45.74
2023-05-19T17:42:06.204Z,45.29
2023-05-19T17:44:33.022Z,45.46
2023-05-19T17:47:01.795Z,45.51
2023-05-19T17:49:29.969Z,45.98
2023-05-19T17:51:56.716Z,46.35
2023-05-19T17:54:23.661Z,46.30
2023-05-19T17:56:51.109Z,46.61
2023-05-19T17:59:17.890Z,47.07
2023-05-19T18:01:44.881Z,46.93
2023-05-19T18:04:16.053Z,47.47
2023-05-19T18:06:45.221Z,47.92
2023-05-19T18:09:13.850Z,48.18
2023-05-19T18:11:44.559Z,48.05
2023-05-19T18:14:11.102Z,48.57
2023-05-19T18:16:38.913Z,48.99
2023-05-19T18:19:05.893Z,49.11
2023-05-19T18:21:32.498Z,49.45
2023-05-19T18:23:59.370Z,49.68
2023-05-19T18:26:27.704Z,50.64
2023-05-19T18:28:54.704Z,50.63
2023-05-19T18:31:21.278Z,50.65
2023-05-19T18:33:49.346Z,50.92
2023-05-19T18:36:16.233Z,51.25
2023-05-19T18:38:42.908Z,51.03
2023-05-19T18:41:09.633Z,51.46
2023-05-19T18:43:36.140Z,52.50
2023-05-19T18:46:05.519Z,52.99
2023-05-19T18:48:32.138Z,53.18
2023-05-19T18:50:59.634Z,52.97
2023-05-19T18:53:26.880Z,53.62
2023-05-19T18:55:56.335Z,53.54
2023-05-19T18:58:22.852Z,53.95
2023-05-19T19:00:49.388Z,53.68
2023-05-19T19:03:16.309Z,54.44
2023-05-19T19:05:43.805Z,54.35
2023-05-19T19:08:10.332Z,54.38
2023-05-19T19:10:37.423Z,54.61
2023-05-19T19:13:04.440Z,54.68
2023-05-19T19:15:31.029Z,55.41
2023-05-19T19:17:57.661Z,55.05
2023-05-19T19:20:27.275Z,56.06
2023-05-19T19:22:53.782Z,55.48
2023-05-19T19:25:23.095Z,56.39
2023-05-19T19:27:50.247Z,57.07
2023-05-19T19:30:16.842Z,57.07
2023-05-19T19:32:43.831Z,57.49
2023-05-19T19:35:11.015Z,57.38
2023-05-19T19:37:38.499Z,57.11
2023-05-19T19:40:06.025Z,58.03
2023-05-19T19:42:32.789Z,57.38
2023-05-19T19:44:59.488Z,58.52
2023-05-19T19:47:27.149Z,58.97
2023-05-19T19:49:54.024Z,58.99
2023-05-19T19:52:20.711Z,58.93
2023-05-19T19:54:47.482Z,60.10
2023-05-19T19:57:14.436Z,60.07
2023-05-19T19:59:40.856Z,60.61
2023-05-19T20:02:07.688Z,60.60
2023-05-19T20:04:34.491Z,60.95
2023-05-19T20:07:01.429Z,61.06
2023-05-19T20:09:27.955Z,60.67
2023-05-19T20:11:54.574Z,61.01
2023-05-19T20:14:21.313Z,61.10
2023-05-19T20:16:48.171Z,62.00
2023-05-19T20:19:14.967Z,62.18
2023-05-19T20:21:42.151Z,62.85
2023-05-19T20:24:08.952Z,63.05
2023-05-19T20:26:36.012Z,63.07
2023-05-19T20:29:03.121Z,63.42
2023-05-19T20:31:29.808Z,62.98
2023-05-19T20:33:57.308Z,63.36
2023-05-19T20:36:25.243Z,63.64
2023-05-19T20:38:51.822Z,64.40
2023-05-19T20:41:18.656Z,64.64
2023-05-19T20:43:45.158Z,64.64
2023-05-19T20:46:12.072Z,64.96
2023-05-19T20:48:38.846Z,65.03
2023-05-19T20:51:05.552Z,65.91
2023-05-19T20:53:32.328Z,66.16
2023-05-19T20:55:59.128Z,65.58
2023-05-19T20:58:27.852Z,65.71
2023-05-19T21:00:54.769Z,65.84
2023-05-19T21:03:23.384Z,66.24
2023-05-19T21:05:51.983Z,66.31
2023-05-19T21:08:19.729Z,67.33
2023-05-19T21:10:46.366Z,66.83
2023-05-19T21:13:13.109Z,67.26
2023-05-19T21:15:39.780Z,67.34
2023-05-19T21:18:07.454Z,67.93
2023-05-19T21:20:36.629Z,67.59
2023-05-19T21:23:03.785Z,67.65
2023-05-19T21:25:30.419Z,68.17
2023-05-19T21:27:58.436Z,68.29
2023-05-19T21:30:25.240Z,68.76
2023-05-19T21:32:52.087Z,68.38
2023-05-19T21:35:18.789Z,68.46
2023-05-19T21:37:45.656Z,69.05
2023-05-19T21:40:12.889Z,69.01
2023-05-19T21:42:39.655Z,69.59
2023-05-19T21:45:06.981Z,69.22
2023-05-19T21:47:33.521Z,70.03
2023-05-19T21:50:00.211Z,69.81
2023-05-19T21:52:27.348Z,69.59
2023-05-19T21:54:53.972Z,69.82
2023-05-19T21:57:20.497Z,70.25
2023-05-19T21:59:47.146Z,70.25
2023-05-19T22:02:13.678Z,70.34
2023-05-19T22:04:41.431Z,70.63
2023-05-19T22:07:08.037Z,70.24
2023-05-19T22:09:34.548Z,70.38
2023-05-19T22:12:01.430Z,71.06
2023-05-19T22:14:27.959Z,70.55
2023-05-19T22:16:54.538Z,71.41
2023-05-19T22:19:21.492Z,71.20
2023-05-19T22:21:49.242Z,71.04
2023-05-19T22:24:17.177Z,71.15
2023-05-19T22:26:43.800Z,71.21
2023-05-19T22:29:10.578Z,71.36
2023-05-19T22:31:37.292Z,72.25
2023-05-19T22:34:04.170Z,71.76
2023-05-19T22:36:30.728Z,71.77
2023-05-19T22:38:58.656Z,72.41
2023-05-19T22:41:31.100Z,72.22
2023-05-19T22:43:57.845Z,72.42
2023-05-19T22:46:24.653Z,72.53
2023-05-19T22:48:51.200Z,72.75
2023-05-19T22:51:17.651Z,72.95
2023-05-19T22:53:44.186Z,73.45
2023-05-19T22:56:10.689Z,73.92
2023-05-19T22:58:37.253Z,73.34
2023-05-19T23:01:04.036Z,74.08
2023-05-19T23:03:30.523Z,73.52
2023-05-19T23:05:57.100Z,73.78
2023-05-19T23:08:23.884Z,74.54
2023-05-19T23:10:50.647Z,74.59
2023-05-19T23:13:17.414Z,75.21
2023-05-19T23:15:44.149Z,74.72
2023-05-19T23:18:10.975Z,75.20
2023-05-19T23:20:37.572Z,75.00
2023-05-19T23:23:04.377Z,75.47
2023-05-19T23:25:31.197Z,75.74
2023-05-19T23:27:57.971Z,75.96
2023-05-19T23:30:24.675Z,75.88
2023-05-19T23:32:51.391Z,75.52
2023-05-19T23:35:18.322Z,76.12
2023-05-19T23:37:45.113Z,76.42
2023-05-19T23:40:13.480Z,76.78
2023-05-19T23:42:40.291Z,76.44
2023-05-19T23:45:07.477Z,77.39
2023-05-19T23:47:36.482Z,77.30
2023-05-19T23:50:03.375Z,77.76
2023-05-19T23:52:29.956Z,78.26
2023-05-19T23:54:58.538Z,77.79
2023-05-19T23:57:26.930Z,78.24
2023-05-19T23:59:53.434Z,78.15
